ZYTX/SHE METAR and TAF weather

Enter ICAO airport designator
Station Type Date Time Source
ZYTX METAR 2018/12/13 07:00 UTC NOAA

ZYTX 130700Z 32004MPS CAVOK M07/M17 Q1035 NOSIG


Station Type Date Time Source
ZYTX Decoded METAR 2018/12/13 07:00 UTC NOAA

Shenyang / Taokian, China (ZYTX) 41-48N 123-24E
Dec 13, 2018 - 02:00 AM EST / 2018.12.13 0700 UTC
Wind: from the NW (320 degrees) at 9 MPH (8 KT):0
Visibility: greater than 7 mile(s):0
Temperature: 19 F (-7 C)
Windchill: 8 F (-13 C):1
Dew Point: 1 F (-17 C)
Relative Humidity: 44%
Pressure (altimeter): 30.56 in. Hg (1035 hPa)
ob: ZYTX 130700Z 32004MPS CAVOK M07/M17 Q1035 NOSIG
cycle: 7

Station Type Date Time Source
ZYTX TAF 2018/12/13 06:04 UTC NOAA

TAF ZYTX 130238Z 1306/1406 35004MPS 6000 NSC TXM03/06Z TNM18/21Z


Example: see airport list